This is the latest recevied weather packets stored in our database for station/object G4ZMG. If no packets are shown the sender has not sent any weather packets the latest 10 day(s).
| Time | Temp. | Humidity | Pressure | Rain* | Wind** | Luminosity | Snow |
|---|---|---|---|---|---|---|---|
| 1788148200 | 54° F | 95% | 753.1 mmHg | 0 in | - | 0 W/m² | - |
| 1788147600 | 54° F | 95% | 753 mmHg | 0 in | - | 0 W/m² | - |
| 1788147001 | 54° F | 95% | 752.9 mmHg | 0 in | - | 0 W/m² | - |
| 1788146402 | 54° F | 95% | 752.9 mmHg | 0 in | - | 0 W/m² | - |
| 1788145800 | 54° F | 95% | 752.8 mmHg | 0 in | - | 0 W/m² | - |
| 1788145206 | 54° F | 95% | 752.7 mmHg | 0 in | - | 0 W/m² | - |
| 1788144601 | 54° F | 95% | 752.7 mmHg | 0 in | - | 0 W/m² | - |
| 1788144000 | 54° F | 95% | 752.6 mmHg | 0 in | - | 0 W/m² | - |
| 1788143401 | 54° F | 95% | 752.5 mmHg | 0 in | - | 0 W/m² | - |
| 1788142801 | 54° F | 95% | 752.4 mmHg | 0 in | - | 0 W/m² | - |
| 1788142201 | 54° F | 95% | 752.3 mmHg | 0 in | - | 0 W/m² | - |
| 1788141606 | 54° F | 95% | 752.4 mmHg | 0 in | - | 0 W/m² | - |
| 1788141001 | 54° F | 95% | 752.4 mmHg | 0 in | - | 0 W/m² | - |
| 1788140400 | 54° F | 95% | 752.4 mmHg | 0 in | - | 0 W/m² | - |
| 1788139800 | 54° F | 95% | 752.3 mmHg | 0 in | - | 0 W/m² | - |
| 1788139200 | 54° F | 95% | 752.4 mmHg | 0 in | - | 0 W/m² | - |
| 1788138601 | 54° F | 95% | 752.4 mmHg | 0.01 in | - | 0 W/m² | - |
| 1788138004 | 53° F | 95% | 752.2 mmHg | 0.01 in | - | 0 W/m² | - |
| 1788137402 | 53° F | 95% | 752.1 mmHg | 0.01 in | - | 0 W/m² | - |
| 1788135024 | 54° F | 95% | 751.7 mmHg | 0.14 in | - | 0 W/m² | - |
| 1788134412 | 54° F | 94% | 751.9 mmHg | 0.2 in | - | 0 W/m² | - |
| 1788133808 | 54° F | 94% | 751.7 mmHg | 0.33 in | - | 0 W/m² | - |
| 1788133204 | 54° F | 94% | 751.6 mmHg | 0.33 in | - | 0 W/m² | - |
| 1788132612 | 55° F | 94% | 751.7 mmHg | 0.32 in | - | 0 W/m² | - |
| 1788132005 | 55° F | 94% | 752.2 mmHg | 0.28 in | - | 0 W/m² | - |
* Rain latest hour (hover to see other rain measurements)
** Current wind speed in m/s (hover to see current wind gust speed)